Penetanguishene, Canada
Current Conditions -  °F | °C
As of 5:00 AM on Saturday 29 Nov 2014 (Local Time) from CYQA Reporting Station
Broken Clouds Broken Clouds  
Wind Chill: -11°   Ceiling: 3500
Heat Index: -7°   Visibility: 9mi
Dew Point: -9°   Wind: 6mph
Humidity: 86%   Direction: 120°ESE
Pressure: 30.08"   Gusts: NA
Location:  44.77°N, 79.93°W
Report Text: CYQA 291000Z AUTO 12005KT 9SM BKN035 M07/M09 A3008 RMK SLP206
Loading
Personal Weather Stations






























Interactive Weather Map New forecast layout! Learn more

10-Day Weather Forecast

Advertisements
Track Severe Weather on mobile